Glen, Montana
Current Conditions -  °F | °C
As of 6:53 AM on Tuesday 21 Oct 2014 (Local Time) from KDLN Reporting Station
Overcast Overcast  
Wind Chill: 56°   Ceiling: 7500
Heat Index: 56°   Visibility: 10mi
Dew Point: 39°   Wind: 10mph
Humidity: 53%   Direction: 230°SW
Pressure: 29.76"   Gusts: NA
Location:  45.48°N, 112.69°W
Report Text: KDLN 211253Z AUTO 23009KT 10SM SCT055 OVC075 13/04 A2976 RMK AO2 RAB31E44 SLP030 P0000 T01330039
Loading
Personal Weather Stations






























Interactive Weather Map
Tropical Storm Tracking
New forecast layout! Learn more

10-Day Weather Forecast

Advertisements
Track Severe Weather on mobile